createdAt,value
2023-02-05T00:01:07.417Z,25.27
2023-02-05T00:03:39.029Z,23.27
2023-02-05T00:06:09.557Z,14.77
2023-02-05T00:08:39.685Z,18.13
2023-02-05T00:11:16.679Z,18.80
2023-02-05T00:13:47.650Z,27.40
2023-02-05T00:16:22.006Z,24.83
2023-02-05T00:18:52.149Z,24.83
2023-02-05T00:21:26.916Z,15.67
2023-02-05T00:23:59.842Z,20.33
2023-02-05T00:26:32.641Z,16.93
2023-02-05T00:29:02.763Z,25.37
2023-02-05T00:31:33.927Z,17.47
2023-02-05T00:34:04.112Z,22.00
2023-02-05T00:36:34.254Z,26.80
2023-02-05T00:39:04.392Z,23.10
2023-02-05T00:41:39.805Z,15.97
2023-02-05T00:44:10.070Z,17.30
2023-02-05T00:46:40.359Z,21.27
2023-02-05T00:49:10.463Z,18.93
2023-02-05T00:51:40.635Z,19.13
2023-02-05T00:54:10.703Z,18.93
2023-02-05T00:56:43.425Z,18.87
2023-02-05T00:59:13.644Z,18.87
2023-02-05T01:01:45.123Z,22.13
2023-02-05T01:04:15.262Z,21.47
2023-02-05T01:06:45.481Z,20.90
2023-02-05T01:09:15.608Z,23.00
2023-02-05T01:11:48.348Z,24.30
2023-02-05T01:14:18.387Z,23.57
2023-02-05T01:16:51.334Z,28.53
2023-02-05T01:19:21.399Z,25.30
2023-02-05T01:21:53.599Z,22.97
2023-02-05T01:24:23.647Z,20.23
2023-02-05T01:26:58.863Z,22.90
2023-02-05T01:29:29.706Z,19.33
2023-02-05T01:32:00.182Z,19.70
2023-02-05T01:34:30.304Z,39.27
2023-02-05T01:37:00.439Z,28.93
2023-02-05T01:39:30.678Z,27.97
2023-02-05T01:42:03.398Z,18.53
2023-02-05T01:44:34.366Z,20.47
2023-02-05T01:47:04.509Z,16.73
2023-02-05T01:49:44.207Z,16.90
2023-02-05T01:52:22.347Z,21.40
2023-02-05T01:54:55.601Z,19.47
2023-02-05T01:57:33.248Z,18.03
2023-02-05T02:00:03.493Z,18.83
2023-02-05T02:02:33.771Z,18.90
2023-02-05T02:05:12.192Z,20.67
2023-02-05T02:07:43.810Z,25.20
2023-02-05T02:10:20.857Z,19.73
2023-02-05T02:12:55.494Z,18.77
2023-02-05T02:15:30.341Z,20.40
2023-02-05T02:18:18.430Z,47.60
2023-02-05T02:20:56.086Z,21.33
2023-02-05T02:23:41.446Z,27.97
2023-02-05T02:26:43.086Z,19.37
2023-02-05T02:29:25.136Z,19.53
2023-02-05T02:32:05.798Z,18.43
2023-02-05T02:34:47.766Z,19.97
2023-02-05T02:37:28.480Z,23.53
2023-02-05T02:40:11.406Z,19.67
2023-02-05T02:42:50.568Z,20.43
2023-02-05T02:45:30.385Z,20.77
2023-02-05T02:48:03.615Z,19.50
2023-02-05T02:50:39.342Z,25.67
2023-02-05T02:53:19.609Z,17.80
2023-02-05T02:55:53.961Z,18.77
2023-02-05T02:58:30.611Z,19.43
2023-02-05T03:01:09.284Z,20.67
2023-02-05T03:03:46.166Z,21.23
2023-02-05T03:06:19.407Z,20.60
2023-02-05T03:08:58.666Z,25.00
2023-02-05T03:11:29.196Z,21.73
2023-02-05T03:14:00.381Z,21.93
2023-02-05T03:16:33.999Z,35.67
2023-02-05T03:19:06.904Z,24.70
2023-02-05T03:21:44.045Z,24.30
2023-02-05T03:24:15.098Z,31.27
2023-02-05T03:26:45.193Z,25.27
2023-02-05T03:29:21.221Z,20.83
2023-02-05T03:32:11.502Z,20.60
2023-02-05T03:35:21.720Z,21.40
2023-02-05T03:38:14.185Z,25.80
2023-02-05T03:40:54.674Z,25.67
2023-02-05T03:43:44.794Z,27.50
2023-02-05T03:46:28.836Z,27.00
2023-02-05T03:49:20.766Z,25.43
2023-02-05T03:52:01.298Z,24.17
2023-02-05T03:54:44.771Z,24.17
2023-02-05T03:57:28.559Z,28.53
2023-02-05T04:00:00.431Z,21.57
2023-02-05T04:02:30.946Z,23.67
2023-02-05T04:05:04.066Z,22.40
2023-02-05T04:07:34.164Z,26.30
2023-02-05T04:10:04.416Z,27.60
2023-02-05T04:12:36.815Z,29.03
2023-02-05T04:15:09.176Z,27.00
2023-02-05T04:17:39.386Z,24.83
2023-02-05T04:20:14.300Z,24.97
2023-02-05T04:22:44.662Z,29.67
2023-02-05T04:25:14.820Z,23.97
2023-02-05T04:27:44.957Z,21.83
2023-02-05T04:30:16.405Z,26.47
2023-02-05T04:32:46.574Z,29.50
2023-02-05T04:35:19.570Z,21.93
2023-02-05T04:37:51.104Z,25.87
2023-02-05T04:40:25.239Z,22.43
2023-02-05T04:42:55.359Z,24.47
2023-02-05T04:45:29.017Z,24.90
2023-02-05T04:47:59.588Z,26.23
2023-02-05T04:50:32.458Z,22.43
2023-02-05T04:53:04.827Z,25.13
2023-02-05T04:55:36.232Z,25.53
2023-02-05T04:58:06.968Z,26.80
2023-02-05T05:00:37.109Z,27.33
2023-02-05T05:03:07.331Z,27.77
2023-02-05T05:05:40.824Z,23.10
2023-02-05T05:08:10.962Z,25.33
2023-02-05T05:10:41.822Z,23.83
2023-02-05T05:13:11.902Z,21.93
2023-02-05T05:15:43.849Z,24.67
2023-02-05T05:18:14.082Z,27.53
2023-02-05T05:20:48.073Z,25.20
2023-02-05T05:23:18.241Z,29.30
2023-02-05T05:25:51.081Z,25.17
2023-02-05T05:28:21.741Z,28.73
2023-02-05T05:30:54.523Z,27.70
2023-02-05T05:33:24.850Z,25.60
2023-02-05T05:35:59.127Z,24.13
2023-02-05T05:38:31.510Z,22.23
2023-02-05T05:41:14.610Z,22.27
2023-02-05T05:43:50.307Z,19.87
2023-02-05T05:46:24.211Z,21.13
2023-02-05T05:48:56.748Z,22.20
2023-02-05T05:51:33.530Z,24.37
2023-02-05T05:54:06.196Z,23.47
2023-02-05T05:56:38.391Z,25.53
2023-02-05T05:59:08.612Z,23.10
2023-02-05T06:01:38.719Z,23.10
2023-02-05T06:04:09.508Z,22.37
2023-02-05T06:06:45.643Z,21.63
2023-02-05T06:09:15.756Z,27.43
2023-02-05T06:11:45.872Z,24.20
2023-02-05T06:14:15.928Z,24.33
2023-02-05T06:16:46.016Z,26.63
2023-02-05T06:19:16.157Z,27.40
2023-02-05T06:21:48.834Z,24.90
2023-02-05T06:24:19.018Z,27.73
2023-02-05T06:26:49.099Z,29.83
2023-02-05T06:29:19.330Z,26.47
2023-02-05T06:31:49.493Z,28.83
2023-02-05T06:34:19.731Z,28.63
2023-02-05T06:36:52.397Z,25.53
2023-02-05T06:39:24.912Z,28.67
2023-02-05T06:41:55.322Z,25.47
2023-02-05T06:44:25.655Z,25.17
2023-02-05T06:46:55.739Z,26.47
2023-02-05T06:49:26.113Z,22.43
2023-02-05T06:52:06.032Z,22.10
2023-02-05T06:54:36.164Z,24.80
2023-02-05T06:57:06.462Z,28.70
2023-02-05T06:59:36.668Z,31.43
2023-02-05T07:02:09.837Z,29.73
2023-02-05T07:04:43.506Z,29.43
2023-02-05T07:07:19.800Z,33.90
2023-02-05T07:09:50.373Z,32.17
2023-02-05T07:12:20.635Z,31.10
2023-02-05T07:14:50.996Z,31.20
2023-02-05T07:17:21.301Z,33.07
2023-02-05T07:19:51.493Z,33.47
2023-02-05T07:22:24.231Z,35.37
2023-02-05T07:24:54.340Z,34.13
2023-02-05T07:27:24.507Z,37.80
2023-02-05T07:29:54.694Z,36.57
2023-02-05T07:32:24.833Z,37.97
2023-02-05T07:34:54.975Z,32.10
2023-02-05T07:37:27.629Z,41.93
2023-02-05T07:39:57.759Z,41.73
2023-02-05T07:42:28.600Z,44.70
2023-02-05T07:44:59.745Z,39.23
2023-02-05T07:47:32.182Z,37.93
2023-02-05T07:50:02.331Z,38.60
2023-02-05T07:52:35.959Z,39.63
2023-02-05T07:55:06.137Z,37.80
2023-02-05T07:57:36.251Z,39.80
2023-02-05T08:00:09.917Z,41.90
2023-02-05T08:02:40.073Z,35.83
2023-02-05T08:05:11.730Z,40.03
2023-02-05T08:07:44.321Z,37.37
2023-02-05T08:10:19.183Z,37.80
2023-02-05T08:12:51.822Z,40.90
2023-02-05T08:15:22.163Z,35.50
2023-02-05T08:17:54.593Z,35.07
2023-02-05T08:20:24.756Z,37.80
2023-02-05T08:22:57.439Z,33.17
2023-02-05T08:25:27.653Z,35.03
2023-02-05T08:27:57.804Z,36.40
2023-02-05T08:30:28.109Z,33.77
2023-02-05T08:32:58.239Z,33.83
2023-02-05T08:35:28.448Z,34.37
2023-02-05T08:38:01.741Z,34.53
2023-02-05T08:40:32.166Z,32.13
2023-02-05T08:43:03.325Z,36.17
2023-02-05T08:45:34.330Z,32.87
2023-02-05T08:48:04.949Z,32.03
2023-02-05T08:50:35.075Z,30.00
2023-02-05T08:53:10.120Z,30.33
2023-02-05T08:55:40.272Z,34.20
2023-02-05T08:58:12.614Z,30.10
2023-02-05T09:00:42.837Z,31.37
2023-02-05T09:03:13.013Z,28.90
2023-02-05T09:05:43.158Z,29.10
2023-02-05T09:08:16.169Z,24.17
2023-02-05T09:10:48.024Z,21.13
2023-02-05T09:13:18.156Z,15.60
2023-02-05T09:15:51.034Z,17.97
2023-02-05T09:18:21.324Z,16.33
2023-02-05T09:20:54.245Z,11.70
2023-02-05T09:23:26.985Z,11.33
2023-02-05T09:25:57.236Z,11.70
2023-02-05T09:28:27.326Z,5.63
2023-02-05T09:30:57.602Z,7.63
2023-02-05T09:33:27.764Z,8.10
2023-02-05T09:35:57.852Z,6.27
2023-02-05T09:38:32.855Z,5.30
2023-02-05T09:41:11.316Z,5.40
2023-02-05T09:43:55.228Z,2.87
2023-02-05T09:46:38.815Z,5.10
2023-02-05T09:49:20.968Z,4.47
2023-02-05T09:51:58.853Z,2.90
2023-02-05T09:54:36.874Z,4.30
2023-02-05T09:57:14.535Z,1.87
2023-02-05T09:59:49.250Z,4.87
2023-02-05T10:02:30.515Z,1.97
2023-02-05T10:05:00.642Z,3.60
2023-02-05T10:07:43.834Z,3.83
2023-02-05T10:10:28.879Z,1.57
2023-02-05T10:13:37.270Z,4.40
2023-02-05T10:16:38.392Z,7.50
2023-02-05T10:19:48.669Z,3.80
2023-02-05T10:22:29.397Z,4.63
2023-02-05T10:25:45.462Z,3.13
2023-02-05T10:29:00.989Z,6.77
2023-02-05T10:32:00.753Z,9.03
2023-02-05T10:34:52.392Z,5.70
2023-02-05T10:37:41.610Z,3.10
2023-02-05T10:40:19.899Z,4.27
2023-02-05T10:43:00.263Z,5.30
2023-02-05T10:45:33.231Z,5.00
2023-02-05T10:48:35.229Z,10.80
2023-02-05T10:51:09.399Z,106.10
2023-02-05T10:53:39.656Z,69.20
2023-02-05T10:56:11.431Z,12.30
2023-02-05T10:58:54.869Z,14.90
2023-02-05T11:01:28.838Z,10.40
2023-02-05T11:04:04.102Z,10.27
2023-02-05T11:06:42.784Z,9.17
2023-02-05T11:09:36.573Z,9.20
2023-02-05T11:12:09.462Z,11.60
2023-02-05T11:14:49.100Z,13.03
2023-02-05T11:17:26.141Z,11.27
2023-02-05T11:19:58.904Z,6.87
2023-02-05T11:22:33.042Z,8.07
2023-02-05T11:25:19.494Z,11.70
2023-02-05T11:27:58.130Z,5.03
2023-02-05T11:30:54.309Z,7.23
2023-02-05T11:33:32.502Z,7.37
2023-02-05T11:36:06.696Z,5.13
2023-02-05T11:38:47.190Z,6.80
2023-02-05T11:41:30.543Z,6.50
2023-02-05T11:44:05.529Z,9.47
2023-02-05T11:46:47.227Z,6.67
2023-02-05T11:49:26.238Z,6.77
2023-02-05T11:52:01.696Z,6.07
2023-02-05T11:54:36.331Z,8.33
2023-02-05T11:57:10.500Z,12.70
2023-02-05T11:59:45.173Z,8.37
2023-02-05T12:02:34.802Z,7.27
2023-02-05T12:05:20.266Z,11.67
2023-02-05T12:07:56.296Z,7.80
2023-02-05T12:10:38.232Z,11.30
2023-02-05T12:13:24.281Z,9.50
2023-02-05T12:16:10.812Z,9.83
2023-02-05T12:19:07.742Z,8.20
2023-02-05T12:21:51.965Z,11.53
2023-02-05T12:25:02.100Z,11.97
2023-02-05T12:27:52.644Z,13.43
2023-02-05T12:30:49.249Z,14.17
2023-02-05T12:33:54.304Z,11.57
2023-02-05T12:36:44.867Z,13.03
2023-02-05T12:39:40.418Z,16.63
2023-02-05T12:42:28.999Z,9.70
2023-02-05T12:45:25.946Z,10.30
2023-02-05T12:48:32.559Z,9.73
2023-02-05T12:51:39.513Z,12.17
2023-02-05T12:54:54.748Z,11.77
2023-02-05T12:57:32.550Z,8.73
2023-02-05T13:00:13.689Z,14.03
2023-02-05T13:02:57.609Z,11.13
2023-02-05T13:05:36.192Z,8.87
2023-02-05T13:08:20.385Z,16.30
2023-02-05T13:10:59.040Z,11.30
2023-02-05T13:13:38.306Z,14.17
2023-02-05T13:16:15.263Z,15.97
2023-02-05T13:18:54.438Z,13.07
2023-02-05T13:21:37.283Z,8.20
2023-02-05T13:24:45.515Z,14.30
2023-02-05T13:27:40.114Z,10.33
2023-02-05T13:30:21.200Z,9.77
2023-02-05T13:32:58.791Z,16.13
2023-02-05T13:35:34.511Z,9.10
2023-02-05T13:38:46.515Z,15.00
2023-02-05T13:41:45.966Z,11.57
2023-02-05T13:45:24.726Z,16.73
2023-02-05T13:48:18.360Z,19.13
2023-02-05T13:51:20.856Z,15.93
2023-02-05T13:54:34.337Z,15.47
2023-02-05T13:57:44.225Z,15.73
2023-02-05T14:00:17.778Z,15.27
2023-02-05T14:02:54.248Z,14.60
2023-02-05T14:05:35.333Z,17.50
2023-02-05T14:08:08.104Z,24.73
2023-02-05T14:10:49.346Z,27.87
2023-02-05T14:13:31.588Z,14.67
2023-02-05T14:16:37.331Z,22.90
2023-02-05T14:19:24.203Z,10.17
2023-02-05T14:22:15.478Z,14.83
2023-02-05T14:24:52.978Z,8.90
2023-02-05T14:27:55.338Z,19.10
2023-02-05T14:30:57.297Z,11.93
2023-02-05T14:34:22.221Z,7.90
2023-02-05T14:36:53.948Z,6.83
2023-02-05T14:39:33.407Z,6.67
2023-02-05T14:42:08.209Z,9.30
2023-02-05T14:44:51.119Z,7.10
2023-02-05T14:47:29.446Z,10.10
2023-02-05T14:50:22.100Z,8.60
2023-02-05T14:52:57.251Z,16.83
2023-02-05T14:55:35.312Z,9.63
2023-02-05T14:58:11.693Z,10.10
2023-02-05T15:00:44.601Z,5.20
2023-02-05T15:03:40.707Z,8.40
2023-02-05T15:06:18.225Z,8.67
2023-02-05T15:09:20.821Z,6.47
2023-02-05T15:12:23.783Z,14.10
2023-02-05T15:14:56.804Z,6.80
2023-02-05T15:17:58.059Z,8.83
2023-02-05T15:20:38.065Z,7.20
2023-02-05T15:23:23.460Z,6.83
2023-02-05T15:26:04.324Z,5.33
2023-02-05T15:28:39.649Z,9.17
2023-02-05T15:31:23.223Z,12.47
2023-02-05T15:34:05.573Z,7.50
2023-02-05T15:36:46.015Z,16.00
2023-02-05T15:39:26.896Z,11.97
2023-02-05T15:42:02.796Z,23.93
2023-02-05T15:44:35.704Z,11.10
2023-02-05T15:47:15.317Z,9.40
2023-02-05T15:49:49.162Z,6.33
2023-02-05T15:52:30.505Z,7.10
2023-02-05T15:55:11.476Z,17.17
2023-02-05T15:57:43.024Z,11.13
2023-02-05T16:00:23.548Z,28.20
2023-02-05T16:02:59.594Z,10.10
2023-02-05T16:05:35.349Z,17.80
2023-02-05T16:08:21.429Z,15.73
2023-02-05T16:11:06.083Z,20.40
2023-02-05T16:13:36.908Z,8.03
2023-02-05T16:16:13.179Z,12.43
2023-02-05T16:18:49.960Z,6.20
2023-02-05T16:21:28.417Z,17.97
2023-02-05T16:24:04.971Z,17.20
2023-02-05T16:26:45.662Z,12.40
2023-02-05T16:29:28.200Z,31.40
2023-02-05T16:32:05.069Z,57.53
2023-02-05T16:34:40.746Z,35.63
2023-02-05T16:37:20.364Z,94.03
2023-02-05T16:39:58.646Z,11.10
2023-02-05T16:42:43.163Z,13.87
2023-02-05T16:45:29.138Z,10.77
2023-02-05T16:48:25.610Z,19.73
2023-02-05T16:50:57.804Z,6.73
2023-02-05T16:53:30.905Z,6.00
2023-02-05T16:56:15.793Z,10.87
2023-02-05T16:58:51.178Z,6.63
2023-02-05T17:01:30.478Z,11.57
2023-02-05T17:04:03.665Z,23.07
2023-02-05T17:06:38.800Z,36.30
2023-02-05T17:09:11.547Z,60.17
2023-02-05T17:11:45.641Z,10.03
2023-02-05T17:14:31.742Z,24.10
2023-02-05T17:17:04.393Z,33.63
2023-02-05T17:19:36.804Z,31.23
2023-02-05T17:22:22.917Z,18.83
2023-02-05T17:24:54.577Z,18.13
2023-02-05T17:27:35.847Z,16.03
2023-02-05T17:30:09.186Z,12.77
2023-02-05T17:32:40.431Z,15.50
2023-02-05T17:35:17.173Z,10.63
2023-02-05T17:37:47.458Z,15.17
2023-02-05T17:40:19.523Z,13.30
2023-02-05T17:42:52.274Z,11.57
2023-02-05T17:45:31.704Z,14.40
2023-02-05T17:48:01.845Z,13.50
2023-02-05T17:50:34.680Z,22.50
2023-02-05T17:53:07.652Z,16.60
2023-02-05T17:55:37.830Z,14.93
2023-02-05T17:58:11.876Z,16.53
2023-02-05T18:00:42.010Z,16.40
2023-02-05T18:03:12.094Z,19.57
2023-02-05T18:05:42.444Z,17.77
2023-02-05T18:08:14.565Z,13.10
2023-02-05T18:10:44.717Z,16.97
2023-02-05T18:13:17.606Z,19.43
2023-02-05T18:15:51.221Z,15.17
2023-02-05T18:18:21.601Z,13.80
2023-02-05T18:20:51.710Z,14.30
2023-02-05T18:23:28.817Z,15.13
2023-02-05T18:25:59.897Z,16.33
2023-02-05T18:28:35.310Z,18.77
2023-02-05T18:31:09.464Z,24.30
2023-02-05T18:33:40.331Z,19.23
2023-02-05T18:36:13.664Z,13.80
2023-02-05T18:38:45.854Z,18.20
2023-02-05T18:41:21.791Z,19.70
2023-02-05T18:43:57.414Z,17.33
2023-02-05T18:46:29.285Z,16.10
2023-02-05T18:48:59.468Z,12.20
2023-02-05T18:51:29.843Z,12.77
2023-02-05T18:54:01.689Z,16.37
2023-02-05T18:56:35.746Z,18.37
2023-02-05T18:59:10.756Z,16.80
2023-02-05T19:01:44.889Z,14.97
2023-02-05T19:04:18.606Z,15.27
2023-02-05T19:06:53.414Z,15.53
2023-02-05T19:09:26.103Z,14.53
2023-02-05T19:11:57.694Z,23.33
2023-02-05T19:14:30.694Z,52.37
2023-02-05T19:17:03.255Z,31.77
2023-02-05T19:19:34.018Z,15.20
2023-02-05T19:22:06.424Z,18.57
2023-02-05T19:24:36.967Z,18.00
2023-02-05T19:27:07.455Z,16.13
2023-02-05T19:29:40.992Z,18.50
2023-02-05T19:32:11.558Z,16.27
2023-02-05T19:34:43.751Z,14.90
2023-02-05T19:37:13.847Z,19.63
2023-02-05T19:39:43.951Z,21.97
2023-02-05T19:42:14.124Z,21.23
2023-02-05T19:44:46.839Z,21.40
2023-02-05T19:47:16.933Z,15.20
2023-02-05T19:49:47.013Z,18.07
2023-02-05T19:52:20.077Z,19.63
2023-02-05T19:54:50.170Z,18.47
2023-02-05T19:57:20.237Z,14.73
2023-02-05T19:59:53.153Z,16.23
2023-02-05T20:02:24.795Z,17.80
2023-02-05T20:04:55.931Z,18.77
2023-02-05T20:07:26.428Z,13.70
2023-02-05T20:09:56.464Z,12.63
2023-02-05T20:12:29.770Z,18.03
2023-02-05T20:15:02.418Z,16.30
2023-02-05T20:17:32.543Z,16.60
2023-02-05T20:20:13.970Z,19.03
2023-02-05T20:22:54.134Z,19.77
2023-02-05T20:25:24.693Z,19.43
2023-02-05T20:27:54.840Z,19.73
2023-02-05T20:30:40.049Z,16.93
2023-02-05T20:33:10.193Z,16.87
2023-02-05T20:35:40.291Z,17.10
2023-02-05T20:38:10.544Z,11.60
2023-02-05T20:40:40.598Z,24.00
2023-02-05T20:43:10.751Z,13.10
2023-02-05T20:45:43.449Z,15.33
2023-02-05T20:48:13.596Z,19.20
2023-02-05T20:50:43.703Z,19.70
2023-02-05T20:53:13.785Z,18.13
2023-02-05T20:55:43.880Z,20.07
2023-02-05T20:58:13.983Z,13.87
2023-02-05T21:00:47.122Z,17.73
2023-02-05T21:03:17.303Z,26.17
2023-02-05T21:05:47.499Z,22.37
2023-02-05T21:08:17.664Z,14.33
2023-02-05T21:10:47.751Z,18.60
2023-02-05T21:13:17.858Z,16.93
2023-02-05T21:16:01.686Z,11.57
2023-02-05T21:18:33.793Z,15.97
2023-02-05T21:21:12.104Z,15.30
2023-02-05T21:23:43.268Z,18.17
2023-02-05T21:26:24.081Z,11.77
2023-02-05T21:28:57.028Z,10.47
2023-02-05T21:31:34.060Z,16.77
2023-02-05T21:34:04.505Z,12.80
2023-02-05T21:36:38.671Z,21.17
2023-02-05T21:39:17.272Z,13.87
2023-02-05T21:41:47.698Z,12.07
2023-02-05T21:44:20.337Z,11.53
2023-02-05T21:46:53.749Z,10.37
2023-02-05T21:49:24.278Z,12.97
2023-02-05T21:51:54.833Z,12.40
2023-02-05T21:54:25.783Z,20.57
2023-02-05T21:56:56.155Z,16.67
2023-02-05T21:59:26.582Z,15.20
2023-02-05T22:01:59.343Z,15.03
2023-02-05T22:04:29.576Z,15.63
2023-02-05T22:06:59.736Z,15.70
2023-02-05T22:09:29.802Z,11.67
2023-02-05T22:12:04.162Z,16.03
2023-02-05T22:14:35.644Z,11.03
2023-02-05T22:17:09.003Z,12.23
2023-02-05T22:19:39.098Z,16.40
2023-02-05T22:22:09.370Z,14.30
2023-02-05T22:24:39.438Z,16.60
2023-02-05T22:27:09.679Z,15.37
2023-02-05T22:29:39.758Z,17.13
2023-02-05T22:32:14.823Z,15.60
2023-02-05T22:34:44.879Z,17.57
2023-02-05T22:37:15.015Z,19.03
2023-02-05T22:39:45.298Z,14.13
2023-02-05T22:42:17.181Z,15.33
2023-02-05T22:44:48.791Z,18.27
2023-02-05T22:47:21.528Z,16.07
2023-02-05T22:49:51.601Z,20.67
2023-02-05T22:52:21.952Z,19.27
2023-02-05T22:54:51.985Z,15.27
2023-02-05T22:57:22.136Z,16.83
2023-02-05T22:59:52.254Z,17.73
2023-02-05T23:02:25.617Z,19.53
2023-02-05T23:04:56.252Z,14.80
2023-02-05T23:07:26.397Z,12.40
2023-02-05T23:09:56.468Z,14.07
2023-02-05T23:12:26.704Z,20.97
2023-02-05T23:14:56.803Z,13.10
2023-02-05T23:17:29.609Z,21.70
2023-02-05T23:19:59.806Z,17.50
2023-02-05T23:22:30.348Z,16.87
2023-02-05T23:25:00.892Z,11.53
2023-02-05T23:27:32.175Z,18.00
2023-02-05T23:30:04.878Z,18.30
2023-02-05T23:32:38.717Z,13.23
2023-02-05T23:35:12.425Z,19.80
2023-02-05T23:37:42.590Z,14.27
2023-02-05T23:40:14.012Z,17.73
2023-02-05T23:42:44.354Z,17.87
2023-02-05T23:45:16.809Z,8.77
2023-02-05T23:47:52.159Z,25.97
2023-02-05T23:50:22.317Z,16.33
2023-02-05T23:52:52.509Z,20.20
2023-02-05T23:55:22.672Z,18.23
2023-02-05T23:57:53.506Z,16.87
